sensor_id;sensor_type;location;lat;lon;timestamp;P1;durP1;ratioP1;P2;durP2;ratioP2
66270;SDS011;53063;39.614;8.814;2023-04-01T00:01:52;13.52;;;4.68;;
66270;SDS011;53063;39.614;8.814;2023-04-01T00:04:18;13.55;;;4.63;;
66270;SDS011;53063;39.614;8.814;2023-04-01T00:06:44;16.83;;;4.68;;
66270;SDS011;53063;39.614;8.814;2023-04-01T00:09:10;15.82;;;4.85;;
66270;SDS011;53063;39.614;8.814;2023-04-01T00:11:36;14.05;;;4.80;;
66270;SDS011;53063;39.614;8.814;2023-04-01T00:14:02;13.32;;;5.05;;
66270;SDS011;53063;39.614;8.814;2023-04-01T00:16:28;14.27;;;4.80;;
66270;SDS011;53063;39.614;8.814;2023-04-01T00:18:54;15.77;;;5.43;;
66270;SDS011;53063;39.614;8.814;2023-04-01T00:21:20;14.63;;;4.93;;
66270;SDS011;53063;39.614;8.814;2023-04-01T00:23:48;10.75;;;4.32;;
66270;SDS011;53063;39.614;8.814;2023-04-01T00:26:15;15.10;;;4.63;;
66270;SDS011;53063;39.614;8.814;2023-04-01T00:28:44;17.50;;;5.65;;
66270;SDS011;53063;39.614;8.814;2023-04-01T00:31:11;16.17;;;5.55;;
66270;SDS011;53063;39.614;8.814;2023-04-01T00:33:37;16.10;;;4.75;;
66270;SDS011;53063;39.614;8.814;2023-04-01T00:36:09;13.88;;;4.80;;
66270;SDS011;53063;39.614;8.814;2023-04-01T00:38:39;16.75;;;5.05;;
66270;SDS011;53063;39.614;8.814;2023-04-01T00:41:06;9.70;;;3.80;;
66270;SDS011;53063;39.614;8.814;2023-04-01T00:43:32;16.92;;;4.63;;
66270;SDS011;53063;39.614;8.814;2023-04-01T00:45:59;11.27;;;4.75;;
66270;SDS011;53063;39.614;8.814;2023-04-01T00:48:30;14.52;;;4.95;;
66270;SDS011;53063;39.614;8.814;2023-04-01T00:51:01;14.93;;;4.72;;
66270;SDS011;53063;39.614;8.814;2023-04-01T00:53:48;15.68;;;5.25;;
66270;SDS011;53063;39.614;8.814;2023-04-01T00:59:31;13.07;;;3.50;;
66270;SDS011;53063;39.614;8.814;2023-04-01T01:02:05;10.10;;;4.20;;
66270;SDS011;53063;39.614;8.814;2023-04-01T01:04:34;13.88;;;3.92;;
66270;SDS011;53063;39.614;8.814;2023-04-01T01:26:07;18.02;;;4.32;;
66270;SDS011;53063;39.614;8.814;2023-04-01T01:28:51;18.80;;;3.95;;
66270;SDS011;53063;39.614;8.814;2023-04-01T01:36:22;12.38;;;4.32;;
66270;SDS011;53063;39.614;8.814;2023-04-01T01:38:52;12.85;;;4.72;;
66270;SDS011;53063;39.614;8.814;2023-04-01T01:41:18;14.93;;;4.10;;
66270;SDS011;53063;39.614;8.814;2023-04-01T01:43:47;10.70;;;4.10;;
66270;SDS011;53063;39.614;8.814;2023-04-01T01:46:20;18.35;;;4.47;;
66270;SDS011;53063;39.614;8.814;2023-04-01T01:48:48;12.77;;;3.97;;
66270;SDS011;53063;39.614;8.814;2023-04-01T01:51:16;11.25;;;4.25;;
66270;SDS011;53063;39.614;8.814;2023-04-01T01:53:44;10.30;;;3.90;;
66270;SDS011;53063;39.614;8.814;2023-04-01T01:56:10;26.77;;;5.03;;
66270;SDS011;53063;39.614;8.814;2023-04-01T01:58:43;16.55;;;4.57;;
66270;SDS011;53063;39.614;8.814;2023-04-01T02:01:16;13.55;;;4.72;;
66270;SDS011;53063;39.614;8.814;2023-04-01T02:03:45;14.90;;;4.65;;
66270;SDS011;53063;39.614;8.814;2023-04-01T02:06:14;17.23;;;4.60;;
66270;SDS011;53063;39.614;8.814;2023-04-01T02:11:13;14.13;;;5.60;;
66270;SDS011;53063;39.614;8.814;2023-04-01T02:13:54;17.63;;;5.35;;
66270;SDS011;53063;39.614;8.814;2023-04-01T02:16:32;17.95;;;5.35;;
66270;SDS011;53063;39.614;8.814;2023-04-01T02:19:03;12.25;;;4.50;;
66270;SDS011;53063;39.614;8.814;2023-04-01T02:21:32;16.73;;;4.72;;
66270;SDS011;53063;39.614;8.814;2023-04-01T02:24:01;14.25;;;5.22;;
66270;SDS011;53063;39.614;8.814;2023-04-01T02:26:32;15.07;;;4.85;;
66270;SDS011;53063;39.614;8.814;2023-04-01T02:28:59;15.60;;;4.82;;
66270;SDS011;53063;39.614;8.814;2023-04-01T02:31:28;16.25;;;5.68;;
66270;SDS011;53063;39.614;8.814;2023-04-01T02:33:55;19.63;;;6.40;;
66270;SDS011;53063;39.614;8.814;2023-04-01T02:36:22;11.13;;;5.13;;
66270;SDS011;53063;39.614;8.814;2023-04-01T02:38:49;15.05;;;5.18;;
66270;SDS011;53063;39.614;8.814;2023-04-01T02:41:16;15.68;;;5.22;;
66270;SDS011;53063;39.614;8.814;2023-04-01T02:43:42;18.52;;;5.38;;
66270;SDS011;53063;39.614;8.814;2023-04-01T02:46:08;20.08;;;5.05;;
66270;SDS011;53063;39.614;8.814;2023-04-01T02:48:34;19.20;;;5.38;;
66270;SDS011;53063;39.614;8.814;2023-04-01T02:51:00;21.55;;;5.40;;
66270;SDS011;53063;39.614;8.814;2023-04-01T02:53:26;17.17;;;5.22;;
66270;SDS011;53063;39.614;8.814;2023-04-01T02:55:52;15.40;;;5.57;;
66270;SDS011;53063;39.614;8.814;2023-04-01T02:58:18;18.17;;;5.95;;
66270;SDS011;53063;39.614;8.814;2023-04-01T03:00:44;18.25;;;5.50;;
66270;SDS011;53063;39.614;8.814;2023-04-01T03:03:10;23.63;;;6.30;;
66270;SDS011;53063;39.614;8.814;2023-04-01T03:05:38;14.73;;;4.60;;
66270;SDS011;53063;39.614;8.814;2023-04-01T03:08:04;15.05;;;5.07;;
66270;SDS011;53063;39.614;8.814;2023-04-01T03:10:31;20.60;;;5.05;;
66270;SDS011;53063;39.614;8.814;2023-04-01T03:12:57;13.20;;;5.70;;
66270;SDS011;53063;39.614;8.814;2023-04-01T03:15:23;21.75;;;5.78;;
66270;SDS011;53063;39.614;8.814;2023-04-01T03:17:49;19.30;;;4.65;;
66270;SDS011;53063;39.614;8.814;2023-04-01T03:20:16;12.27;;;5.10;;
66270;SDS011;53063;39.614;8.814;2023-04-01T03:22:42;14.40;;;4.40;;
66270;SDS011;53063;39.614;8.814;2023-04-01T03:25:08;14.80;;;4.57;;
66270;SDS011;53063;39.614;8.814;2023-04-01T03:27:37;11.00;;;4.40;;
66270;SDS011;53063;39.614;8.814;2023-04-01T03:30:03;12.32;;;5.18;;
66270;SDS011;53063;39.614;8.814;2023-04-01T03:32:36;15.50;;;4.43;;
66270;SDS011;53063;39.614;8.814;2023-04-01T03:35:02;20.95;;;4.80;;
66270;SDS011;53063;39.614;8.814;2023-04-01T03:37:28;17.13;;;4.88;;
66270;SDS011;53063;39.614;8.814;2023-04-01T03:39:54;15.07;;;5.05;;
66270;SDS011;53063;39.614;8.814;2023-04-01T03:42:20;11.27;;;4.75;;
66270;SDS011;53063;39.614;8.814;2023-04-01T03:44:47;17.35;;;4.82;;
66270;SDS011;53063;39.614;8.814;2023-04-01T03:47:13;15.63;;;4.15;;
66270;SDS011;53063;39.614;8.814;2023-04-01T03:49:39;16.23;;;5.15;;
66270;SDS011;53063;39.614;8.814;2023-04-01T03:52:07;19.77;;;4.88;;
66270;SDS011;53063;39.614;8.814;2023-04-01T03:54:36;11.77;;;4.90;;
66270;SDS011;53063;39.614;8.814;2023-04-01T03:57:02;15.98;;;5.38;;
66270;SDS011;53063;39.614;8.814;2023-04-01T03:59:28;9.27;;;4.65;;
66270;SDS011;53063;39.614;8.814;2023-04-01T04:01:54;13.05;;;4.97;;
66270;SDS011;53063;39.614;8.814;2023-04-01T04:04:20;19.25;;;4.95;;
66270;SDS011;53063;39.614;8.814;2023-04-01T04:06:46;22.08;;;5.65;;
66270;SDS011;53063;39.614;8.814;2023-04-01T04:09:14;16.48;;;5.05;;
66270;SDS011;53063;39.614;8.814;2023-04-01T04:11:40;8.40;;;4.38;;
66270;SDS011;53063;39.614;8.814;2023-04-01T04:14:06;18.45;;;5.20;;
66270;SDS011;53063;39.614;8.814;2023-04-01T04:16:31;19.52;;;5.47;;
66270;SDS011;53063;39.614;8.814;2023-04-01T04:19:02;11.98;;;4.25;;
66270;SDS011;53063;39.614;8.814;2023-04-01T04:21:29;15.88;;;5.07;;
66270;SDS011;53063;39.614;8.814;2023-04-01T04:23:55;15.43;;;4.78;;
66270;SDS011;53063;39.614;8.814;2023-04-01T04:26:21;18.10;;;5.15;;
66270;SDS011;53063;39.614;8.814;2023-04-01T04:28:54;13.57;;;5.13;;
66270;SDS011;53063;39.614;8.814;2023-04-01T04:31:22;14.18;;;5.18;;
66270;SDS011;53063;39.614;8.814;2023-04-01T04:33:50;16.77;;;4.40;;
66270;SDS011;53063;39.614;8.814;2023-04-01T04:36:17;14.48;;;4.32;;
66270;SDS011;53063;39.614;8.814;2023-04-01T04:38:44;15.85;;;4.80;;
66270;SDS011;53063;39.614;8.814;2023-04-01T04:41:11;18.23;;;4.82;;
66270;SDS011;53063;39.614;8.814;2023-04-01T04:43:39;13.82;;;4.72;;
66270;SDS011;53063;39.614;8.814;2023-04-01T04:46:07;19.30;;;5.25;;
66270;SDS011;53063;39.614;8.814;2023-04-01T04:48:34;12.73;;;4.72;;
66270;SDS011;53063;39.614;8.814;2023-04-01T04:51:00;17.70;;;5.15;;
66270;SDS011;53063;39.614;8.814;2023-04-01T04:53:27;14.98;;;5.13;;
66270;SDS011;53063;39.614;8.814;2023-04-01T04:55:53;16.83;;;5.22;;
66270;SDS011;53063;39.614;8.814;2023-04-01T04:58:33;15.48;;;5.45;;
66270;SDS011;53063;39.614;8.814;2023-04-01T05:01:05;19.25;;;5.68;;
66270;SDS011;53063;39.614;8.814;2023-04-01T05:03:32;20.55;;;5.00;;
66270;SDS011;53063;39.614;8.814;2023-04-01T05:05:58;15.05;;;4.78;;
66270;SDS011;53063;39.614;8.814;2023-04-01T05:08:24;17.88;;;5.10;;
66270;SDS011;53063;39.614;8.814;2023-04-01T05:10:50;18.67;;;4.82;;
66270;SDS011;53063;39.614;8.814;2023-04-01T05:13:16;19.83;;;5.28;;
66270;SDS011;53063;39.614;8.814;2023-04-01T05:15:45;11.80;;;5.13;;
66270;SDS011;53063;39.614;8.814;2023-04-01T05:18:11;20.73;;;5.15;;
66270;SDS011;53063;39.614;8.814;2023-04-01T05:20:37;21.35;;;5.40;;
66270;SDS011;53063;39.614;8.814;2023-04-01T05:23:03;23.08;;;5.50;;
66270;SDS011;53063;39.614;8.814;2023-04-01T05:25:29;16.15;;;4.88;;
66270;SDS011;53063;39.614;8.814;2023-04-01T05:27:55;15.75;;;4.97;;
66270;SDS011;53063;39.614;8.814;2023-04-01T05:30:21;15.48;;;4.65;;
66270;SDS011;53063;39.614;8.814;2023-04-01T05:33:10;10.85;;;4.65;;
66270;SDS011;53063;39.614;8.814;2023-04-01T05:35:38;13.68;;;4.93;;
66270;SDS011;53063;39.614;8.814;2023-04-01T05:38:05;14.68;;;5.18;;
66270;SDS011;53063;39.614;8.814;2023-04-01T05:40:31;17.95;;;4.72;;
66270;SDS011;53063;39.614;8.814;2023-04-01T05:42:57;10.88;;;4.75;;
66270;SDS011;53063;39.614;8.814;2023-04-01T05:45:24;28.48;;;6.75;;
66270;SDS011;53063;39.614;8.814;2023-04-01T05:48:16;20.88;;;4.80;;
66270;SDS011;53063;39.614;8.814;2023-04-01T05:50:43;15.48;;;4.70;;
66270;SDS011;53063;39.614;8.814;2023-04-01T05:53:10;13.32;;;4.53;;
66270;SDS011;53063;39.614;8.814;2023-04-01T05:55:38;15.45;;;5.13;;
66270;SDS011;53063;39.614;8.814;2023-04-01T05:58:04;20.73;;;4.80;;
66270;SDS011;53063;39.614;8.814;2023-04-01T06:00:34;13.95;;;5.00;;
66270;SDS011;53063;39.614;8.814;2023-04-01T06:03:00;15.48;;;5.07;;
66270;SDS011;53063;39.614;8.814;2023-04-01T06:05:30;18.48;;;5.03;;
66270;SDS011;53063;39.614;8.814;2023-04-01T06:08:13;16.30;;;5.53;;
66270;SDS011;53063;39.614;8.814;2023-04-01T06:27:44;19.10;;;5.72;;
66270;SDS011;53063;39.614;8.814;2023-04-01T06:44:16;14.80;;;3.70;;
66270;SDS011;53063;39.614;8.814;2023-04-01T06:53:56;14.18;;;3.03;;
66270;SDS011;53063;39.614;8.814;2023-04-01T06:56:49;12.93;;;3.15;;
66270;SDS011;53063;39.614;8.814;2023-04-01T06:59:25;14.77;;;3.50;;
66270;SDS011;53063;39.614;8.814;2023-04-01T07:02:01;12.52;;;3.65;;
66270;SDS011;53063;39.614;8.814;2023-04-01T07:04:46;16.38;;;3.10;;
66270;SDS011;53063;39.614;8.814;2023-04-01T07:09:59;18.38;;;3.53;;
66270;SDS011;53063;39.614;8.814;2023-04-01T07:15:20;47.67;;;16.98;;
66270;SDS011;53063;39.614;8.814;2023-04-01T07:17:48;48.53;;;16.92;;
66270;SDS011;53063;39.614;8.814;2023-04-01T07:20:23;33.65;;;12.20;;
66270;SDS011;53063;39.614;8.814;2023-04-01T07:22:56;30.17;;;8.05;;
66270;SDS011;53063;39.614;8.814;2023-04-01T07:25:34;21.23;;;5.53;;
66270;SDS011;53063;39.614;8.814;2023-04-01T07:28:32;21.40;;;6.25;;
66270;SDS011;53063;39.614;8.814;2023-04-01T07:36:48;15.90;;;3.78;;
66270;SDS011;53063;39.614;8.814;2023-04-01T08:01:13;17.30;;;6.25;;
66270;SDS011;53063;39.614;8.814;2023-04-01T08:10:19;22.25;;;8.35;;
66270;SDS011;53063;39.614;8.814;2023-04-01T08:16:37;15.73;;;3.90;;
66270;SDS011;53063;39.614;8.814;2023-04-01T08:22:27;22.30;;;4.20;;
66270;SDS011;53063;39.614;8.814;2023-04-01T08:25:01;33.08;;;13.20;;
66270;SDS011;53063;39.614;8.814;2023-04-01T08:27:46;25.05;;;7.22;;
66270;SDS011;53063;39.614;8.814;2023-04-01T08:30:20;19.55;;;5.03;;
66270;SDS011;53063;39.614;8.814;2023-04-01T08:33:35;17.23;;;3.67;;
66270;SDS011;53063;39.614;8.814;2023-04-01T08:49:22;15.98;;;3.40;;
66270;SDS011;53063;39.614;8.814;2023-04-01T08:54:45;11.73;;;2.58;;
66270;SDS011;53063;39.614;8.814;2023-04-01T09:15:16;10.52;;;2.63;;
66270;SDS011;53063;39.614;8.814;2023-04-01T09:21:39;15.80;;;2.10;;
66270;SDS011;53063;39.614;8.814;2023-04-01T09:29:24;14.98;;;2.78;;
66270;SDS011;53063;39.614;8.814;2023-04-01T09:32:09;8.80;;;1.67;;
66270;SDS011;53063;39.614;8.814;2023-04-01T09:38:23;13.85;;;3.05;;
66270;SDS011;53063;39.614;8.814;2023-04-01T09:44:34;20.65;;;2.38;;
66270;SDS011;53063;39.614;8.814;2023-04-01T10:07:54;11.82;;;2.53;;
66270;SDS011;53063;39.614;8.814;2023-04-01T10:21:25;11.52;;;2.35;;
66270;SDS011;53063;39.614;8.814;2023-04-01T10:24:00;13.52;;;2.30;;
66270;SDS011;53063;39.614;8.814;2023-04-01T10:30:23;16.45;;;1.90;;
66270;SDS011;53063;39.614;8.814;2023-04-01T10:53:49;20.23;;;2.70;;
66270;SDS011;53063;39.614;8.814;2023-04-01T11:44:34;15.30;;;2.45;;
66270;SDS011;53063;39.614;8.814;2023-04-01T11:49:59;13.32;;;2.42;;
66270;SDS011;53063;39.614;8.814;2023-04-01T11:52:53;15.02;;;2.33;;
66270;SDS011;53063;39.614;8.814;2023-04-01T11:56:14;15.25;;;2.40;;
66270;SDS011;53063;39.614;8.814;2023-04-01T12:02:10;12.35;;;1.90;;
66270;SDS011;53063;39.614;8.814;2023-04-01T12:10:21;12.52;;;2.28;;
66270;SDS011;53063;39.614;8.814;2023-04-01T12:13:40;12.50;;;2.55;;
66270;SDS011;53063;39.614;8.814;2023-04-01T12:19:04;13.80;;;2.47;;
66270;SDS011;53063;39.614;8.814;2023-04-01T12:30:20;12.75;;;2.35;;
66270;SDS011;53063;39.614;8.814;2023-04-01T12:33:18;17.35;;;2.97;;
66270;SDS011;53063;39.614;8.814;2023-04-01T12:41:43;11.90;;;2.30;;
66270;SDS011;53063;39.614;8.814;2023-04-01T12:47:21;9.20;;;2.00;;
66270;SDS011;53063;39.614;8.814;2023-04-01T12:50:39;18.75;;;2.65;;
66270;SDS011;53063;39.614;8.814;2023-04-01T13:07:57;12.13;;;2.03;;
66270;SDS011;53063;39.614;8.814;2023-04-01T13:15:51;9.68;;;2.10;;
66270;SDS011;53063;39.614;8.814;2023-04-01T13:26:13;10.13;;;2.10;;
66270;SDS011;53063;39.614;8.814;2023-04-01T13:29:13;16.90;;;2.10;;
66270;SDS011;53063;39.614;8.814;2023-04-01T13:31:53;11.15;;;2.35;;
66270;SDS011;53063;39.614;8.814;2023-04-01T13:43:12;14.90;;;3.20;;
66270;SDS011;53063;39.614;8.814;2023-04-01T13:59:55;15.88;;;2.25;;
66270;SDS011;53063;39.614;8.814;2023-04-01T14:05:24;13.35;;;2.75;;
66270;SDS011;53063;39.614;8.814;2023-04-01T14:15:50;14.85;;;2.83;;
66270;SDS011;53063;39.614;8.814;2023-04-01T14:21:13;16.73;;;2.60;;
66270;SDS011;53063;39.614;8.814;2023-04-01T14:35:20;12.95;;;2.10;;
66270;SDS011;53063;39.614;8.814;2023-04-01T14:38:25;14.20;;;2.83;;
66270;SDS011;53063;39.614;8.814;2023-04-01T14:40:56;11.57;;;2.35;;
66270;SDS011;53063;39.614;8.814;2023-04-01T14:43:47;11.02;;;1.70;;
66270;SDS011;53063;39.614;8.814;2023-04-01T14:49:04;21.15;;;2.85;;
66270;SDS011;53063;39.614;8.814;2023-04-01T14:51:40;12.25;;;2.30;;
66270;SDS011;53063;39.614;8.814;2023-04-01T14:57:23;22.00;;;2.42;;
66270;SDS011;53063;39.614;8.814;2023-04-01T15:05:47;17.27;;;2.28;;
66270;SDS011;53063;39.614;8.814;2023-04-01T15:08:34;14.75;;;3.20;;
66270;SDS011;53063;39.614;8.814;2023-04-01T15:14:21;10.57;;;2.08;;
66270;SDS011;53063;39.614;8.814;2023-04-01T15:25:26;12.98;;;2.90;;
66270;SDS011;53063;39.614;8.814;2023-04-01T15:28:21;17.70;;;3.15;;
66270;SDS011;53063;39.614;8.814;2023-04-01T15:31:04;15.57;;;3.22;;
66270;SDS011;53063;39.614;8.814;2023-04-01T15:36:43;18.75;;;3.70;;
66270;SDS011;53063;39.614;8.814;2023-04-01T15:42:43;10.63;;;3.00;;
66270;SDS011;53063;39.614;8.814;2023-04-01T15:53:26;14.85;;;2.40;;
66270;SDS011;53063;39.614;8.814;2023-04-01T15:56:24;9.20;;;1.90;;
66270;SDS011;53063;39.614;8.814;2023-04-01T16:04:56;13.27;;;2.08;;
66270;SDS011;53063;39.614;8.814;2023-04-01T16:13:24;10.43;;;1.65;;
66270;SDS011;53063;39.614;8.814;2023-04-01T16:16:09;15.77;;;5.60;;
66270;SDS011;53063;39.614;8.814;2023-04-01T16:27:12;18.85;;;3.50;;
66270;SDS011;53063;39.614;8.814;2023-04-01T16:29:45;10.32;;;2.22;;
66270;SDS011;53063;39.614;8.814;2023-04-01T16:32:46;16.88;;;2.63;;
66270;SDS011;53063;39.614;8.814;2023-04-01T16:43:21;15.35;;;2.65;;
66270;SDS011;53063;39.614;8.814;2023-04-01T16:48:29;18.33;;;3.28;;
66270;SDS011;53063;39.614;8.814;2023-04-01T16:51:18;20.55;;;3.33;;
66270;SDS011;53063;39.614;8.814;2023-04-01T16:54:03;20.60;;;3.70;;
66270;SDS011;53063;39.614;8.814;2023-04-01T16:59:45;49.05;;;12.02;;
66270;SDS011;53063;39.614;8.814;2023-04-01T17:05:13;29.38;;;8.65;;
66270;SDS011;53063;39.614;8.814;2023-04-01T17:07:54;24.35;;;5.82;;
66270;SDS011;53063;39.614;8.814;2023-04-01T17:10:33;21.02;;;3.22;;
66270;SDS011;53063;39.614;8.814;2023-04-01T17:21:16;15.45;;;3.20;;
66270;SDS011;53063;39.614;8.814;2023-04-01T17:23:53;16.63;;;3.28;;
66270;SDS011;53063;39.614;8.814;2023-04-01T17:26:46;22.90;;;3.53;;
66270;SDS011;53063;39.614;8.814;2023-04-01T17:29:18;17.20;;;2.17;;
66270;SDS011;53063;39.614;8.814;2023-04-01T17:45:22;18.70;;;4.00;;
66270;SDS011;53063;39.614;8.814;2023-04-01T17:47:59;23.80;;;4.15;;
66270;SDS011;53063;39.614;8.814;2023-04-01T17:53:05;16.00;;;3.60;;
66270;SDS011;53063;39.614;8.814;2023-04-01T17:55:58;16.35;;;3.08;;
66270;SDS011;53063;39.614;8.814;2023-04-01T17:58:29;16.85;;;2.80;;
66270;SDS011;53063;39.614;8.814;2023-04-01T18:01:25;15.70;;;3.33;;
66270;SDS011;53063;39.614;8.814;2023-04-01T18:21:28;14.40;;;3.63;;
66270;SDS011;53063;39.614;8.814;2023-04-01T18:23:59;16.67;;;2.88;;
66270;SDS011;53063;39.614;8.814;2023-04-01T18:26:36;15.07;;;2.13;;
66270;SDS011;53063;39.614;8.814;2023-04-01T18:29:19;12.10;;;2.60;;
66270;SDS011;53063;39.614;8.814;2023-04-01T18:32:12;15.23;;;2.45;;
66270;SDS011;53063;39.614;8.814;2023-04-01T18:34:48;17.00;;;2.00;;
66270;SDS011;53063;39.614;8.814;2023-04-01T18:38:18;17.70;;;2.22;;
66270;SDS011;53063;39.614;8.814;2023-04-01T18:40:43;12.25;;;1.90;;
66270;SDS011;53063;39.614;8.814;2023-04-01T18:45:51;16.15;;;2.17;;
66270;SDS011;53063;39.614;8.814;2023-04-01T18:57:13;16.25;;;2.35;;
66270;SDS011;53063;39.614;8.814;2023-04-01T18:59:42;13.93;;;2.25;;
66270;SDS011;53063;39.614;8.814;2023-04-01T19:07:42;11.80;;;2.17;;
66270;SDS011;53063;39.614;8.814;2023-04-01T19:15:27;14.55;;;2.50;;
66270;SDS011;53063;39.614;8.814;2023-04-01T19:18:23;15.13;;;3.13;;
66270;SDS011;53063;39.614;8.814;2023-04-01T19:21:09;17.00;;;2.92;;
66270;SDS011;53063;39.614;8.814;2023-04-01T19:29:26;10.82;;;2.33;;
66270;SDS011;53063;39.614;8.814;2023-04-01T19:40:45;18.73;;;2.58;;
66270;SDS011;53063;39.614;8.814;2023-04-01T19:43:38;13.90;;;2.33;;
66270;SDS011;53063;39.614;8.814;2023-04-01T19:52:37;17.67;;;3.33;;
66270;SDS011;53063;39.614;8.814;2023-04-01T20:05:20;14.65;;;2.78;;
66270;SDS011;53063;39.614;8.814;2023-04-01T20:09:07;17.02;;;2.75;;
66270;SDS011;53063;39.614;8.814;2023-04-01T20:38:41;17.95;;;2.30;;
66270;SDS011;53063;39.614;8.814;2023-04-01T20:46:48;22.08;;;2.67;;
66270;SDS011;53063;39.614;8.814;2023-04-01T20:54:45;17.80;;;2.40;;
66270;SDS011;53063;39.614;8.814;2023-04-01T20:57:38;12.27;;;1.98;;
66270;SDS011;53063;39.614;8.814;2023-04-01T21:13:16;15.98;;;3.17;;
66270;SDS011;53063;39.614;8.814;2023-04-01T21:15:59;12.60;;;2.13;;
66270;SDS011;53063;39.614;8.814;2023-04-01T21:18:42;22.80;;;2.70;;
66270;SDS011;53063;39.614;8.814;2023-04-01T21:24:36;16.67;;;2.50;;
66270;SDS011;53063;39.614;8.814;2023-04-01T21:32:58;14.40;;;2.00;;
66270;SDS011;53063;39.614;8.814;2023-04-01T21:38:27;13.93;;;2.60;;
66270;SDS011;53063;39.614;8.814;2023-04-01T21:52:19;12.20;;;1.98;;
66270;SDS011;53063;39.614;8.814;2023-04-01T22:07:02;10.90;;;1.85;;
66270;SDS011;53063;39.614;8.814;2023-04-01T22:15:15;15.30;;;2.38;;
66270;SDS011;53063;39.614;8.814;2023-04-01T22:25:29;14.50;;;1.92;;
66270;SDS011;53063;39.614;8.814;2023-04-01T22:28:07;17.73;;;2.15;;
66270;SDS011;53063;39.614;8.814;2023-04-01T22:30:52;15.93;;;1.90;;
66270;SDS011;53063;39.614;8.814;2023-04-01T22:36:01;10.60;;;2.15;;
66270;SDS011;53063;39.614;8.814;2023-04-01T22:38:56;10.73;;;2.42;;
66270;SDS011;53063;39.614;8.814;2023-04-01T22:44:01;13.27;;;1.90;;
66270;SDS011;53063;39.614;8.814;2023-04-01T22:49:00;11.73;;;2.03;;
66270;SDS011;53063;39.614;8.814;2023-04-01T22:51:42;15.63;;;2.33;;
66270;SDS011;53063;39.614;8.814;2023-04-01T22:54:33;14.57;;;2.85;;
66270;SDS011;53063;39.614;8.814;2023-04-01T22:57:06;15.75;;;2.03;;
66270;SDS011;53063;39.614;8.814;2023-04-01T23:02:18;14.23;;;1.95;;
66270;SDS011;53063;39.614;8.814;2023-04-01T23:04:57;13.30;;;2.08;;
66270;SDS011;53063;39.614;8.814;2023-04-01T23:09:52;14.52;;;2.63;;
66270;SDS011;53063;39.614;8.814;2023-04-01T23:12:21;13.18;;;1.98;;
66270;SDS011;53063;39.614;8.814;2023-04-01T23:14:50;12.07;;;1.67;;
66270;SDS011;53063;39.614;8.814;2023-04-01T23:36:09;13.18;;;1.73;;
66270;SDS011;53063;39.614;8.814;2023-04-01T23:38:42;10.60;;;2.30;;
66270;SDS011;53063;39.614;8.814;2023-04-01T23:41:27;17.70;;;2.30;;
66270;SDS011;53063;39.614;8.814;2023-04-01T23:44:08;17.40;;;2.70;;
66270;SDS011;53063;39.614;8.814;2023-04-01T23:46:37;14.00;;;2.05;;
66270;SDS011;53063;39.614;8.814;2023-04-01T23:49:06;16.63;;;2.00;;
66270;SDS011;53063;39.614;8.814;2023-04-01T23:52:03;13.00;;;2.85;;
66270;SDS011;53063;39.614;8.814;2023-04-01T23:56:57;11.30;;;2.40;;
